Terminal Aerodrome Forecast
Issued by NWS

Current Version | Previous Version | Text Only | Print | Product List | Glossary Off
Versions: 1 2 3 4 5 6 7 8 9 10 11 12 13 14 15 16

000
FTUS42 KMHX 301732
TAFOAJ
TAF
KOAJ 301732Z 3018/3118 24012KT P6SM SCT015 BKN050
      TEMPO 3018/3020 BKN015
     FM302300 30003KT P6SM SKC
     FM311400 23008G17KT P6SM SKC
      AMD LTD TO CLD VIS AND WIND=

USA.gov is the U.S. government's official web portal to all federal, state and local government web resources and services.